createdAt,value
2023-01-23T00:00:14.005Z,25.87
2023-01-23T00:02:42.235Z,25.90
2023-01-23T00:05:11.066Z,26.47
2023-01-23T00:07:38.886Z,22.97
2023-01-23T00:10:07.818Z,23.30
2023-01-23T00:12:37.064Z,24.13
2023-01-23T00:15:06.744Z,27.83
2023-01-23T00:17:34.625Z,22.00
2023-01-23T00:20:02.414Z,23.30
2023-01-23T00:22:30.179Z,25.93
2023-01-23T00:24:57.997Z,26.07
2023-01-23T00:27:25.815Z,26.33
2023-01-23T00:29:55.194Z,27.10
2023-01-23T00:32:23.404Z,27.53
2023-01-23T00:34:51.369Z,25.27
2023-01-23T00:37:19.158Z,28.87
2023-01-23T00:39:47.182Z,26.47
2023-01-23T00:42:14.931Z,24.83
2023-01-23T00:44:42.738Z,29.63
2023-01-23T00:47:11.927Z,30.60
2023-01-23T00:49:39.844Z,28.23
2023-01-23T00:52:07.564Z,27.30
2023-01-23T00:54:35.354Z,29.27
2023-01-23T00:57:03.186Z,32.70
2023-01-23T00:59:31.117Z,32.83
2023-01-23T01:01:59.057Z,36.73
2023-01-23T01:04:28.228Z,33.73
2023-01-23T01:06:56.020Z,33.80
2023-01-23T01:09:24.816Z,33.83
2023-01-23T01:11:52.741Z,34.17
2023-01-23T01:14:20.626Z,31.20
2023-01-23T01:16:48.649Z,33.43
2023-01-23T01:19:18.085Z,35.40
2023-01-23T01:21:48.727Z,35.30
2023-01-23T01:24:16.501Z,33.13
2023-01-23T01:26:44.238Z,35.70
2023-01-23T01:29:12.005Z,34.73
2023-01-23T01:31:39.799Z,35.60
2023-01-23T01:34:07.686Z,32.83
2023-01-23T01:36:35.480Z,31.80
2023-01-23T01:39:04.837Z,35.00
2023-01-23T01:41:33.241Z,37.20
2023-01-23T01:44:01.061Z,36.67
2023-01-23T01:46:30.679Z,37.13
2023-01-23T01:49:11.657Z,36.77
2023-01-23T01:51:45.401Z,36.03
2023-01-23T01:54:22.283Z,37.93
2023-01-23T01:56:53.452Z,38.37
2023-01-23T01:59:24.907Z,40.17
2023-01-23T02:01:58.645Z,38.47
2023-01-23T02:04:26.554Z,34.33
2023-01-23T02:06:56.746Z,38.80
2023-01-23T02:09:27.628Z,36.70
2023-01-23T02:11:55.567Z,36.10
2023-01-23T02:14:25.748Z,34.97
2023-01-23T02:16:56.170Z,38.70
2023-01-23T02:19:39.021Z,35.07
2023-01-23T02:22:14.603Z,34.83
2023-01-23T02:24:53.626Z,33.47
2023-01-23T02:27:23.569Z,31.93
2023-01-23T02:29:52.493Z,34.00
2023-01-23T02:32:24.373Z,29.87
2023-01-23T02:34:55.847Z,32.07
2023-01-23T02:37:29.823Z,32.77
2023-01-23T02:39:58.545Z,34.80
2023-01-23T02:42:28.534Z,31.20
2023-01-23T02:44:58.012Z,31.27
2023-01-23T02:47:25.941Z,28.17
2023-01-23T02:49:57.181Z,29.53
2023-01-23T02:52:25.181Z,26.40
2023-01-23T02:54:53.049Z,26.53
2023-01-23T02:57:20.822Z,27.17
2023-01-23T03:00:07.943Z,27.17
2023-01-23T03:02:38.151Z,28.37
2023-01-23T03:05:06.796Z,28.30
2023-01-23T03:07:35.579Z,24.23
2023-01-23T03:10:05.214Z,26.03
2023-01-23T03:12:33.065Z,27.73
2023-01-23T03:15:02.642Z,26.20
2023-01-23T03:17:30.680Z,23.93
2023-01-23T03:19:58.912Z,23.30
2023-01-23T03:22:27.621Z,27.60
2023-01-23T03:24:57.663Z,23.83
2023-01-23T03:27:25.910Z,23.97
2023-01-23T03:30:13.889Z,25.30
2023-01-23T03:32:44.213Z,28.17
2023-01-23T03:35:16.497Z,26.47
2023-01-23T03:37:44.430Z,26.47
2023-01-23T03:40:34.966Z,27.47
2023-01-23T03:43:03.091Z,27.50
2023-01-23T03:45:31.059Z,27.97
2023-01-23T03:48:00.574Z,27.60
2023-01-23T03:50:28.522Z,24.57
2023-01-23T03:52:56.383Z,21.70
2023-01-23T03:55:24.399Z,25.33
2023-01-23T03:57:54.056Z,21.33
2023-01-23T04:00:27.840Z,23.97
2023-01-23T04:03:07.387Z,20.53
2023-01-23T04:05:38.129Z,22.20
2023-01-23T04:08:06.595Z,20.30
2023-01-23T04:10:36.294Z,22.80
2023-01-23T04:13:09.172Z,23.73
2023-01-23T04:15:37.189Z,22.20
2023-01-23T04:18:08.931Z,22.03
2023-01-23T04:20:36.816Z,21.23
2023-01-23T04:23:04.786Z,20.90
2023-01-23T04:25:32.590Z,25.67
2023-01-23T04:28:00.398Z,28.03
2023-01-23T04:30:28.524Z,29.43
2023-01-23T04:32:59.386Z,25.57
2023-01-23T04:35:28.722Z,22.40
2023-01-23T04:37:56.474Z,23.27
2023-01-23T04:40:24.349Z,22.50
2023-01-23T04:42:56.797Z,23.43
2023-01-23T04:45:32.932Z,24.07
2023-01-23T04:48:13.471Z,24.97
2023-01-23T04:50:43.347Z,21.77
2023-01-23T04:53:11.621Z,22.97
2023-01-23T04:55:40.009Z,26.43
2023-01-23T04:58:12.465Z,24.23
2023-01-23T05:00:41.206Z,25.80
2023-01-23T05:03:09.172Z,26.17
2023-01-23T05:05:44.093Z,27.90
2023-01-23T05:08:12.874Z,25.70
2023-01-23T05:10:42.811Z,25.90
2023-01-23T05:13:13.833Z,25.00
2023-01-23T05:15:41.700Z,25.90
2023-01-23T05:18:09.596Z,25.67
2023-01-23T05:20:37.666Z,23.30
2023-01-23T05:23:07.637Z,24.80
2023-01-23T05:25:46.930Z,25.83
2023-01-23T05:28:15.147Z,21.57
2023-01-23T05:30:48.900Z,23.47
2023-01-23T05:33:26.320Z,24.83
2023-01-23T05:35:54.464Z,25.30
2023-01-23T05:38:23.712Z,24.00
2023-01-23T05:40:51.755Z,23.77
2023-01-23T05:43:42.080Z,24.50
2023-01-23T05:46:15.668Z,24.70
2023-01-23T05:48:50.489Z,25.23
2023-01-23T05:51:18.770Z,25.33
2023-01-23T05:53:48.173Z,22.40
2023-01-23T05:56:17.613Z,22.50
2023-01-23T05:59:05.738Z,25.00
2023-01-23T06:01:56.802Z,25.10
2023-01-23T06:04:59.827Z,23.63
2023-01-23T06:07:40.762Z,22.57
2023-01-23T06:10:11.959Z,26.70
2023-01-23T06:12:39.724Z,22.87
2023-01-23T06:15:08.260Z,24.07
2023-01-23T06:17:36.205Z,24.67
2023-01-23T06:20:04.237Z,24.17
2023-01-23T06:22:32.497Z,24.00
2023-01-23T06:25:04.977Z,24.23
2023-01-23T06:27:34.185Z,22.93
2023-01-23T06:30:06.540Z,24.20
2023-01-23T06:32:38.985Z,22.83
2023-01-23T06:35:08.560Z,23.33
2023-01-23T06:37:39.851Z,23.27
2023-01-23T06:40:13.049Z,23.63
2023-01-23T06:42:44.803Z,21.37
2023-01-23T06:45:13.081Z,18.73
2023-01-23T06:47:40.892Z,21.70
2023-01-23T06:50:10.924Z,20.93
2023-01-23T06:52:40.136Z,22.47
2023-01-23T06:55:08.647Z,18.70
2023-01-23T06:57:36.573Z,18.27
2023-01-23T07:00:07.768Z,18.90
2023-01-23T07:02:38.804Z,17.80
2023-01-23T07:05:07.194Z,17.50
2023-01-23T07:07:34.990Z,21.00
2023-01-23T07:10:03.378Z,17.87
2023-01-23T07:12:31.130Z,17.23
2023-01-23T07:14:58.967Z,18.17
2023-01-23T07:17:35.570Z,17.07
2023-01-23T07:20:03.446Z,18.40
2023-01-23T07:22:31.384Z,19.03
2023-01-23T07:24:59.136Z,17.83
2023-01-23T07:27:27.011Z,17.77
2023-01-23T07:29:54.739Z,17.43
2023-01-23T07:32:22.526Z,17.57
2023-01-23T07:34:53.121Z,16.90
2023-01-23T07:37:21.020Z,14.63
2023-01-23T07:39:50.052Z,18.30
2023-01-23T07:42:17.969Z,16.27
2023-01-23T07:44:45.883Z,17.97
2023-01-23T07:47:14.015Z,19.60
2023-01-23T07:49:41.920Z,18.30
2023-01-23T07:52:11.250Z,17.70
2023-01-23T07:54:39.226Z,16.70
2023-01-23T07:57:07.127Z,19.83
2023-01-23T07:59:34.985Z,18.97
2023-01-23T08:02:02.922Z,16.40
2023-01-23T08:04:30.769Z,20.73
2023-01-23T08:06:58.620Z,18.57
2023-01-23T08:09:27.936Z,22.70
2023-01-23T08:11:55.730Z,20.50
2023-01-23T08:14:23.718Z,20.70
2023-01-23T08:16:52.281Z,20.30
2023-01-23T08:19:20.704Z,19.90
2023-01-23T08:21:48.617Z,21.20
2023-01-23T08:24:16.551Z,20.23
2023-01-23T08:26:45.797Z,24.73
2023-01-23T08:29:13.949Z,20.33
2023-01-23T08:31:42.533Z,20.23
2023-01-23T08:34:10.530Z,21.67
2023-01-23T08:36:38.306Z,23.30
2023-01-23T08:39:06.222Z,21.97
2023-01-23T08:41:34.079Z,22.00
2023-01-23T08:44:04.178Z,23.50
2023-01-23T08:46:32.815Z,21.80
2023-01-23T08:49:01.072Z,22.67
2023-01-23T08:51:29.598Z,22.23
2023-01-23T08:53:57.508Z,19.77
2023-01-23T08:56:26.002Z,19.57
2023-01-23T08:58:53.968Z,19.30
2023-01-23T09:01:25.045Z,20.37
2023-01-23T09:03:53.866Z,21.13
2023-01-23T09:06:23.093Z,20.53
2023-01-23T09:08:50.957Z,21.33
2023-01-23T09:11:19.441Z,21.93
2023-01-23T09:13:47.574Z,20.13
2023-01-23T09:16:15.990Z,21.67
2023-01-23T09:18:45.128Z,21.20
2023-01-23T09:21:16.915Z,21.07
2023-01-23T09:23:47.186Z,21.07
2023-01-23T09:26:20.528Z,20.87
2023-01-23T09:28:49.795Z,19.73
2023-01-23T09:31:18.860Z,22.07
2023-01-23T09:33:53.577Z,23.03
2023-01-23T09:36:41.391Z,21.47
2023-01-23T09:39:10.883Z,20.20
2023-01-23T09:41:40.656Z,21.87
2023-01-23T09:44:40.297Z,21.67
2023-01-23T09:47:15.743Z,18.73
2023-01-23T09:50:02.266Z,21.20
2023-01-23T09:52:37.082Z,19.27
2023-01-23T09:55:19.774Z,21.47
2023-01-23T09:57:58.240Z,21.40
2023-01-23T10:00:32.131Z,20.67
2023-01-23T10:03:07.565Z,21.03
2023-01-23T10:05:47.694Z,21.50
2023-01-23T10:08:28.573Z,19.37
2023-01-23T10:11:22.948Z,22.23
2023-01-23T10:14:17.408Z,20.83
2023-01-23T10:16:57.180Z,19.27
2023-01-23T10:19:42.625Z,21.73
2023-01-23T10:22:35.626Z,19.20
2023-01-23T10:25:16.118Z,21.63
2023-01-23T10:27:51.183Z,23.90
2023-01-23T10:30:38.498Z,22.27
2023-01-23T10:33:16.092Z,21.93
2023-01-23T10:36:01.169Z,21.97
2023-01-23T10:38:42.074Z,20.53
2023-01-23T10:41:20.599Z,21.47
2023-01-23T10:43:52.927Z,22.00
2023-01-23T10:46:28.783Z,21.13
2023-01-23T10:49:10.438Z,22.93
2023-01-23T10:52:00.712Z,24.00
2023-01-23T10:54:33.652Z,23.03
2023-01-23T10:57:23.645Z,24.67
2023-01-23T11:00:30.756Z,22.17
2023-01-23T11:03:27.278Z,23.70
2023-01-23T11:06:00.990Z,23.70
2023-01-23T11:08:37.778Z,21.23
2023-01-23T11:11:33.453Z,21.90
2023-01-23T11:14:31.528Z,23.97
2023-01-23T11:17:13.447Z,24.10
2023-01-23T11:19:47.010Z,24.57
2023-01-23T11:22:30.506Z,22.03
2023-01-23T11:25:00.321Z,23.33
2023-01-23T11:27:35.281Z,24.67
2023-01-23T11:30:23.619Z,23.13
2023-01-23T11:32:58.479Z,22.53
2023-01-23T11:35:44.309Z,22.37
2023-01-23T11:38:19.744Z,24.93
2023-01-23T11:40:52.605Z,22.17
2023-01-23T11:43:21.866Z,23.33
2023-01-23T11:46:07.015Z,24.33
2023-01-23T11:48:54.629Z,22.50
2023-01-23T11:51:28.200Z,25.70
2023-01-23T11:54:09.549Z,20.20
2023-01-23T11:56:49.128Z,25.20
2023-01-23T11:59:55.356Z,22.97
2023-01-23T12:02:53.431Z,22.20
2023-01-23T12:05:35.521Z,21.63
2023-01-23T12:08:18.421Z,23.63
2023-01-23T12:10:54.773Z,21.97
2023-01-23T12:13:38.709Z,22.57
2023-01-23T12:16:15.517Z,20.33
2023-01-23T12:18:54.662Z,24.30
2023-01-23T12:21:34.646Z,22.13
2023-01-23T12:24:14.761Z,20.77
2023-01-23T12:27:01.648Z,22.13
2023-01-23T12:30:01.365Z,24.00
2023-01-23T12:32:44.129Z,21.10
2023-01-23T12:35:44.404Z,20.50
2023-01-23T12:38:25.027Z,22.43
2023-01-23T12:41:03.455Z,21.90
2023-01-23T12:43:37.592Z,21.40
2023-01-23T12:46:10.834Z,22.33
2023-01-23T12:48:43.195Z,21.10
2023-01-23T12:51:16.119Z,21.43
2023-01-23T12:53:46.923Z,21.30
2023-01-23T12:56:18.903Z,22.30
2023-01-23T12:58:54.423Z,21.70
2023-01-23T13:01:37.925Z,22.33
2023-01-23T13:04:27.747Z,22.47
2023-01-23T13:07:04.607Z,21.40
2023-01-23T13:09:47.363Z,21.43
2023-01-23T13:12:22.062Z,19.87
2023-01-23T13:17:40.841Z,21.70
2023-01-23T13:20:41.678Z,20.27
2023-01-23T13:23:24.935Z,22.53
2023-01-23T13:26:36.533Z,19.73
2023-01-23T13:29:07.462Z,20.70
2023-01-23T13:31:40.167Z,21.17
2023-01-23T13:34:37.228Z,19.07
2023-01-23T13:37:50.857Z,20.20
2023-01-23T13:40:22.658Z,17.77
2023-01-23T13:42:51.896Z,21.83
2023-01-23T13:45:27.896Z,19.13
2023-01-23T14:20:19.968Z,15.93
2023-01-23T14:22:47.974Z,17.70
2023-01-23T14:25:18.233Z,17.57
2023-01-23T14:27:54.351Z,18.87
2023-01-23T14:30:26.679Z,16.13
2023-01-23T14:32:58.899Z,16.37
2023-01-23T14:35:28.659Z,15.37
2023-01-23T14:38:00.146Z,17.43
2023-01-23T14:40:35.121Z,15.23
2023-01-23T14:43:08.557Z,16.23
2023-01-23T14:45:38.427Z,15.50
2023-01-23T14:48:15.111Z,13.73
2023-01-23T14:50:43.805Z,14.03
2023-01-23T14:53:15.289Z,15.00
2023-01-23T14:55:47.160Z,14.97
2023-01-23T14:58:21.814Z,13.53
2023-01-23T15:00:50.322Z,14.33
2023-01-23T15:03:37.705Z,13.50
2023-01-23T15:06:10.496Z,14.23
2023-01-23T15:08:39.397Z,13.90
2023-01-23T15:11:11.970Z,15.07
2023-01-23T15:13:50.533Z,15.57
2023-01-23T15:16:23.503Z,13.60
2023-01-23T15:19:06.366Z,13.60
2023-01-23T15:21:37.379Z,13.20
2023-01-23T15:24:20.572Z,15.37
2023-01-23T15:27:03.549Z,14.43
2023-01-23T15:29:33.107Z,14.80
2023-01-23T15:32:02.163Z,13.40
2023-01-23T15:34:34.246Z,13.97
2023-01-23T15:37:06.641Z,13.97
2023-01-23T15:39:39.407Z,14.37
2023-01-23T15:42:27.234Z,15.47
2023-01-23T15:44:55.516Z,14.93
2023-01-23T15:47:23.354Z,17.20
2023-01-23T15:49:52.679Z,15.87
2023-01-23T15:52:23.953Z,13.90
2023-01-23T15:54:54.564Z,15.07
2023-01-23T15:57:23.081Z,14.77
2023-01-23T15:59:51.066Z,14.83
2023-01-23T16:02:30.674Z,14.07
2023-01-23T16:05:01.889Z,14.97
2023-01-23T16:07:34.324Z,14.67
2023-01-23T16:10:05.409Z,14.40
2023-01-23T16:12:35.483Z,15.30
2023-01-23T16:15:03.323Z,15.97
2023-01-23T16:17:31.174Z,15.87
2023-01-23T16:20:00.450Z,14.53
2023-01-23T16:22:29.644Z,15.97
2023-01-23T16:24:58.717Z,15.93
2023-01-23T16:27:27.581Z,15.27
2023-01-23T16:29:56.383Z,16.90
2023-01-23T16:32:25.017Z,16.23
2023-01-23T16:34:53.088Z,15.80
2023-01-23T16:37:22.443Z,15.57
2023-01-23T16:40:15.790Z,16.53
2023-01-23T16:42:58.820Z,15.60
2023-01-23T16:45:30.777Z,18.13
2023-01-23T16:47:59.327Z,14.87
2023-01-23T16:50:41.159Z,17.20
2023-01-23T16:53:24.353Z,16.23
2023-01-23T16:55:52.620Z,16.07
2023-01-23T16:58:22.630Z,15.30
2023-01-23T17:00:51.898Z,15.00
2023-01-23T17:03:24.247Z,16.07
2023-01-23T17:05:52.116Z,16.07
2023-01-23T17:08:23.182Z,15.10
2023-01-23T17:10:53.532Z,16.83
2023-01-23T17:14:12.841Z,15.77
2023-01-23T17:16:40.899Z,17.87
2023-01-23T17:19:17.016Z,16.83
2023-01-23T17:21:45.239Z,17.77
2023-01-23T17:24:17.944Z,16.47
2023-01-23T17:26:46.023Z,15.83
2023-01-23T17:29:15.172Z,17.97
2023-01-23T17:31:43.558Z,16.83
2023-01-23T17:34:18.068Z,15.80
2023-01-23T17:36:46.043Z,19.60
2023-01-23T17:39:14.193Z,17.40
2023-01-23T17:41:43.485Z,18.43
2023-01-23T17:44:11.405Z,18.13
2023-01-23T17:46:40.088Z,20.40
2023-01-23T17:49:29.209Z,20.60
2023-01-23T17:51:58.963Z,17.67
2023-01-23T17:54:27.532Z,17.23
2023-01-23T17:56:56.916Z,18.60
2023-01-23T17:59:25.952Z,17.83
2023-01-23T18:01:53.959Z,19.70
2023-01-23T18:04:23.577Z,20.97
2023-01-23T18:06:52.457Z,20.07
2023-01-23T18:09:21.274Z,19.53
2023-01-23T18:11:52.425Z,19.20
2023-01-23T18:14:43.623Z,21.60
2023-01-23T18:17:20.723Z,20.70
2023-01-23T18:19:51.492Z,19.20
2023-01-23T18:22:19.760Z,22.00
2023-01-23T18:24:48.066Z,18.73
2023-01-23T18:27:24.277Z,20.03
2023-01-23T18:30:04.608Z,20.00
2023-01-23T18:32:58.166Z,20.47
2023-01-23T18:35:35.601Z,18.57
2023-01-23T18:38:12.436Z,21.60
2023-01-23T18:40:49.489Z,22.13
2023-01-23T18:43:33.959Z,22.33
2023-01-23T18:46:03.889Z,24.23
2023-01-23T18:48:32.330Z,24.13
2023-01-23T18:51:09.526Z,23.83
2023-01-23T18:53:46.882Z,26.47
2023-01-23T18:56:23.601Z,20.57
2023-01-23T18:59:11.782Z,21.77
2023-01-23T19:01:52.100Z,20.20
2023-01-23T19:04:26.019Z,22.10
2023-01-23T19:06:54.570Z,21.60
2023-01-23T19:09:22.926Z,23.83
2023-01-23T19:12:02.933Z,22.00
2023-01-23T19:14:47.839Z,21.87
2023-01-23T19:17:26.900Z,21.67
2023-01-23T19:20:02.465Z,22.73
2023-01-23T19:22:41.930Z,22.37
2023-01-23T19:25:17.923Z,21.60
2023-01-23T19:27:52.422Z,23.60
2023-01-23T19:30:23.800Z,24.30
2023-01-23T19:32:53.315Z,27.33
2023-01-23T19:35:22.422Z,23.93
2023-01-23T19:37:50.390Z,26.23
2023-01-23T19:40:18.931Z,23.57
2023-01-23T19:42:58.688Z,22.73
2023-01-23T19:45:33.864Z,23.53
2023-01-23T19:48:03.159Z,25.87
2023-01-23T19:50:31.097Z,26.30
2023-01-23T19:53:00.192Z,27.60
2023-01-23T19:55:30.275Z,28.83
2023-01-23T19:57:58.775Z,29.90
2023-01-23T20:00:27.828Z,27.57
2023-01-23T20:02:56.017Z,26.00
2023-01-23T20:05:26.051Z,26.20
2023-01-23T20:07:54.869Z,28.23
2023-01-23T20:10:23.741Z,30.20
2023-01-23T20:12:54.154Z,27.93
2023-01-23T20:15:24.189Z,27.33
2023-01-23T20:17:53.057Z,29.07
2023-01-23T20:20:21.641Z,28.07
2023-01-23T20:22:50.980Z,29.50
2023-01-23T20:25:19.386Z,29.90
2023-01-23T20:27:47.447Z,29.53
2023-01-23T20:30:17.574Z,28.63
2023-01-23T20:32:45.581Z,28.00
2023-01-23T20:35:13.516Z,31.17
2023-01-23T20:37:41.479Z,28.53
2023-01-23T20:40:12.527Z,28.40
2023-01-23T20:42:41.040Z,27.97
2023-01-23T20:45:09.951Z,27.60
2023-01-23T20:47:38.706Z,31.50
2023-01-23T20:50:07.422Z,28.67
2023-01-23T20:52:52.694Z,27.17
2023-01-23T20:55:22.221Z,26.90
2023-01-23T20:58:07.449Z,25.93
2023-01-23T21:00:35.332Z,26.87
2023-01-23T21:03:03.257Z,27.83
2023-01-23T21:05:31.129Z,25.93
2023-01-23T21:07:58.971Z,25.13
2023-01-23T21:10:28.308Z,24.93
2023-01-23T21:12:56.361Z,27.07
2023-01-23T21:15:24.196Z,27.50
2023-01-23T21:17:52.035Z,27.07
2023-01-23T21:20:20.092Z,26.23
2023-01-23T21:22:48.116Z,25.67
2023-01-23T21:25:16.958Z,27.47
2023-01-23T21:27:46.111Z,28.03
2023-01-23T21:30:14.534Z,26.23
2023-01-23T21:32:42.589Z,24.97
2023-01-23T21:35:11.754Z,29.00
2023-01-23T21:37:39.904Z,27.67
2023-01-23T21:40:09.535Z,27.40
2023-01-23T21:42:37.414Z,26.13
2023-01-23T21:45:11.125Z,27.33
2023-01-23T21:47:38.928Z,29.20
2023-01-23T21:50:07.695Z,28.00
2023-01-23T21:52:35.643Z,27.60
2023-01-23T21:55:03.728Z,29.23
2023-01-23T21:57:31.636Z,27.93
2023-01-23T22:00:16.936Z,28.63
2023-01-23T22:02:46.193Z,30.03
2023-01-23T22:05:14.165Z,29.83
2023-01-23T22:07:42.125Z,25.87
2023-01-23T22:10:11.066Z,30.87
2023-01-23T22:12:38.934Z,27.87
2023-01-23T22:15:08.086Z,27.67
2023-01-23T22:17:36.032Z,27.73
2023-01-23T22:20:06.632Z,30.20
2023-01-23T22:22:34.482Z,31.73
2023-01-23T22:25:02.476Z,30.93
2023-01-23T22:27:30.586Z,27.80
2023-01-23T22:29:58.424Z,27.80
2023-01-23T22:32:26.406Z,27.77
2023-01-23T22:34:54.536Z,30.13
2023-01-23T22:37:23.723Z,29.30
2023-01-23T22:39:51.603Z,29.93
2023-01-23T22:42:20.974Z,29.30
2023-01-23T22:44:48.855Z,31.30
2023-01-23T22:47:16.668Z,28.53
2023-01-23T22:49:44.621Z,30.73
2023-01-23T22:52:12.741Z,29.70
2023-01-23T22:54:41.977Z,30.20
2023-01-23T22:57:09.794Z,28.33
2023-01-23T22:59:37.804Z,30.17
2023-01-23T23:04:54.973Z,30.87
2023-01-23T23:07:22.709Z,29.77
2023-01-23T23:09:51.807Z,28.93
2023-01-23T23:12:19.606Z,28.27
2023-01-23T23:14:47.601Z,27.03
2023-01-23T23:17:15.563Z,28.80
2023-01-23T23:19:43.300Z,28.63
2023-01-23T23:22:11.298Z,30.80
2023-01-23T23:24:39.174Z,30.37
2023-01-23T23:27:08.338Z,28.50
2023-01-23T23:29:36.105Z,29.27
2023-01-23T23:32:04.063Z,28.57
2023-01-23T23:34:31.882Z,27.77
2023-01-23T23:36:59.631Z,30.97
2023-01-23T23:39:27.387Z,28.67
2023-01-23T23:41:55.128Z,26.93
2023-01-23T23:44:24.479Z,28.07
2023-01-23T23:46:52.322Z,28.83
2023-01-23T23:49:20.338Z,29.37
2023-01-23T23:51:48.115Z,28.47
2023-01-23T23:54:16.141Z,28.00
2023-01-23T23:56:43.971Z,28.83
2023-01-23T23:59:15.636Z,28.83
